Time;durP1;ratioP1;P1;durP2;ratioP2;P2;SDS_P1;SDS_P2;PMS_P1;PMS_P2;Temp;Humidity;BMP_temperature;BMP_pressure;BME280_temperature;BME280_humidity;BME280_pressure;Samples;Min_cycle;Max_cycle;Signal;HPM_P1;HPM_P2
2023/06/25 00:01:06;;;;;;;14.53;12.77;;;;;;;20.51;83.21;101807.28;5327149;28;20114;-69
2023/06/25 00:03:37;;;;;;;14.63;13.13;;;;;;;20.38;84.65;101814.84;5327934;28;20038;-69
2023/06/25 00:06:09;;;;;;;15.23;12.67;;;;;;;20.31;84.75;101814.22;5328972;28;20031;-69
2023/06/25 00:08:40;;;;;;;15.27;12.97;;;;;;;20.17;84.87;101803.28;5328848;28;20128;-69
2023/06/25 00:11:12;;;;;;;16.80;13.03;;;;;;;20.19;85.38;101804.09;5328884;28;20023;-68
2023/06/25 00:13:43;;;;;;;15.95;14.35;;;;;;;20.08;85.46;101800.97;5329024;28;20501;-69
2023/06/25 00:16:14;;;;;;;16.03;14.17;;;;;;;20.03;85.92;101803.78;5328448;28;20466;-69
2023/06/25 00:18:47;;;;;;;20.13;13.37;;;;;;;20.09;86.19;101790.31;5328580;28;20043;-69
2023/06/25 00:21:18;;;;;;;;;;;;;;;20.26;82.40;101799.44;5329026;28;20024;-69
2023/06/25 00:23:49;;;;;;;16.67;13.67;;;;;;;19.92;85.92;101801.53;5327495;28;19911;-69
2023/06/25 00:26:21;;;;;;;21.83;14.03;;;;;;;19.87;86.68;101792.91;5310454;28;20085;-68
2023/06/25 00:28:52;;;;;;;19.27;14.38;;;;;;;19.74;87.38;101792.44;5328513;27;20398;-69
2023/06/25 00:31:24;;;;;;;16.77;13.50;;;;;;;19.85;87.84;101792.06;5327297;28;20039;-68
2023/06/25 00:33:55;;;;;;;15.13;13.63;;;;;;;19.72;87.95;101790.75;5327074;28;20077;-69
2023/06/25 00:36:36;;;;;;;15.67;14.03;;;;;;;19.70;88.08;101793.44;5328545;28;20039;-68
2023/06/25 00:39:07;;;;;;;19.67;15.32;;;;;;;19.61;88.89;101788.47;5328345;28;20122;-69
2023/06/25 00:41:39;;;;;;;17.80;14.68;;;;;;;19.63;88.93;101784.00;5328379;28;20027;-69
2023/06/25 00:44:11;;;;;;;17.45;15.50;;;;;;;19.55;89.88;101786.91;5328473;28;20039;-70
2023/06/25 00:46:43;;;;;;;22.53;15.47;;;;;;;19.47;89.89;101779.22;5327899;28;20072;-69
2023/06/25 00:49:14;;;;;;;19.23;16.30;;;;;;;19.36;90.32;101777.88;5328307;28;20269;-69
2023/06/25 00:51:45;;;;;;;16.67;15.00;;;;;;;19.27;90.22;101774.63;5328619;28;20088;-70
2023/06/25 00:54:17;;;;;;;16.23;14.13;;;;;;;19.15;90.81;101782.97;5328165;28;20059;-69
2023/06/25 00:56:48;;;;;;;16.97;15.10;;;;;;;19.06;90.34;101772.69;5328001;28;20039;-69
2023/06/25 00:59:20;;;;;;;16.03;14.33;;;;;;;19.33;90.61;101770.06;5327949;28;20428;-69
2023/06/25 01:01:58;;;;;;;16.63;14.13;;;;;;;19.19;91.00;101760.81;5327781;28;20035;-69
2023/06/25 01:04:37;;;;;;;17.48;15.65;;;;;;;19.03;91.75;101772.78;5328356;28;20028;-69
2023/06/25 01:07:16;;;;;;;17.63;15.52;;;;;;;19.15;92.33;101764.47;5328082;28;20055;-69
2023/06/25 01:09:49;;;;;;;16.98;15.20;;;;;;;18.94;91.71;101766.88;5328012;28;20098;-68
2023/06/25 01:12:20;;;;;;;18.58;15.00;;;;;;;19.02;92.10;101757.88;5327273;28;20110;-68
2023/06/25 01:14:52;;;;;;;18.80;15.57;;;;;;;18.80;91.97;101755.88;5327454;28;20455;-75
2023/06/25 01:17:23;;;;;;;17.13;15.33;;;;;;;18.87;92.31;101760.09;5327623;28;20044;-69
2023/06/25 01:19:55;;;;;;;16.03;14.23;;;;;;;18.99;92.29;101760.59;5327291;28;20395;-70
2023/06/25 01:22:30;;;;;;;17.10;15.40;;;;;;;19.03;93.34;101752.53;5327421;28;20028;-69
2023/06/25 01:25:02;;;;;;;16.13;14.45;;;;;;;18.87;92.68;101754.81;5327405;28;20046;-70
2023/06/25 01:27:34;;;;;;;17.40;15.70;;;;;;;18.79;92.98;101759.44;5327481;28;20024;-70
2023/06/25 01:30:06;;;;;;;19.05;15.65;;;;;;;18.74;93.56;101754.28;5327312;28;20028;-69
2023/06/25 01:32:41;;;;;;;18.15;16.42;;;;;;;18.76;93.81;101748.97;5327184;28;20032;-68
2023/06/25 01:35:14;;;;;;;19.25;17.25;;;;;;;18.59;94.03;101747.72;5327244;28;20031;-69
2023/06/25 01:37:47;;;;;;;18.60;16.55;;;;;;;18.48;94.20;101738.38;5327160;28;20379;-69
2023/06/25 01:40:18;;;;;;;18.02;16.13;;;;;;;18.51;94.54;101743.56;5327099;28;20062;-68
2023/06/25 01:42:49;;;;;;;17.80;16.00;;;;;;;18.59;94.73;101734.53;5325990;28;20487;-69
2023/06/25 01:45:21;;;;;;;20.63;15.90;;;;;;;18.52;94.73;101735.59;5326366;28;20054;-68
2023/06/25 01:47:52;;;;;;;18.10;16.23;;;;;;;18.53;94.92;101737.34;5327285;28;20038;-69
2023/06/25 01:50:24;;;;;;;17.80;16.07;;;;;;;18.51;95.13;101733.88;5327066;28;20046;-69
2023/06/25 01:52:55;;;;;;;19.80;16.37;;;;;;;18.30;94.92;101723.97;5326952;28;20028;-69
2023/06/25 01:55:26;;;;;;;19.03;16.60;;;;;;;18.21;95.19;101725.13;5326944;28;20024;-69
2023/06/25 01:57:58;;;;;;;17.93;15.77;;;;;;;18.25;94.77;101716.19;5327022;27;20119;-69
2023/06/25 02:00:29;;;;;;;19.77;15.70;;;;;;;18.10;95.28;101717.53;5326759;28;20106;-69
2023/06/25 02:03:00;;;;;;;18.53;16.63;;;;;;;18.09;95.23;101717.56;5327180;28;20046;-69
2023/06/25 02:05:32;;;;;;;19.87;17.03;;;;;;;18.02;96.32;101714.25;5326568;28;20066;-69
2023/06/25 02:08:03;;;;;;;19.57;17.03;;;;;;;17.95;96.80;101708.28;5326785;28;20092;-68
2023/06/25 02:10:35;;;;;;;20.27;18.03;;;;;;;18.03;96.81;101710.69;5326474;28;20097;-69
2023/06/25 02:13:06;;;;;;;24.50;17.10;;;;;;;18.06;96.98;101701.81;5326476;28;20344;-70
2023/06/25 02:15:38;;;;;;;21.20;17.77;;;;;;;17.99;97.36;101702.00;5326144;28;20028;-69
2023/06/25 02:18:09;;;;;;;19.97;17.60;;;;;;;17.89;96.90;101692.63;5307850;28;20079;-70
2023/06/25 02:20:40;;;;;;;18.90;16.90;;;;;;;17.91;96.90;101696.09;5326649;28;20044;-69
2023/06/25 02:23:12;;;;;;;18.53;16.40;;;;;;;17.85;96.99;101696.22;5325820;28;20107;-68
2023/06/25 02:25:43;;;;;;;19.05;17.13;;;;;;;17.77;97.09;101685.03;5326328;28;20097;-68
2023/06/25 02:28:15;;;;;;;19.83;17.83;;;;;;;17.69;97.67;101690.50;5326225;28;20118;-69
2023/06/25 02:30:46;;;;;;;19.73;17.87;;;;;;;17.69;98.01;101690.50;5325972;28;20026;-69
2023/06/25 02:33:18;;;;;;;19.53;17.53;;;;;;;17.74;98.09;101686.00;5326397;28;20114;-69
2023/06/25 02:35:50;;;;;;;20.23;17.33;;;;;;;17.65;97.83;101679.19;5326290;28;20031;-69
2023/06/25 02:38:21;;;;;;;18.80;16.90;;;;;;;17.61;98.04;101677.56;5326013;28;20059;-68
2023/06/25 02:40:52;;;;;;;20.87;18.10;;;;;;;17.67;98.76;101679.16;5324714;28;20019;-70
2023/06/25 02:43:24;;;;;;;20.10;18.10;;;;;;;17.57;98.78;101678.56;5326108;28;20130;-68
2023/06/25 02:45:55;;;;;;;21.47;17.17;;;;;;;17.47;98.90;101675.31;5325549;28;20440;-68
2023/06/25 02:48:26;;;;;;;24.20;19.80;;;;;;;17.47;99.25;101671.81;5325652;28;20118;-68
2023/06/25 02:50:58;;;;;;;20.20;18.10;;;;;;;17.44;99.20;101677.16;5325848;28;20032;-68
2023/06/25 02:53:29;;;;;;;23.07;18.10;;;;;;;17.38;99.19;101669.41;5325673;28;20032;-68
2023/06/25 02:56:00;;;;;;;22.63;19.40;;;;;;;17.49;99.85;101677.91;5325781;28;20040;-68
2023/06/25 02:58:32;;;;;;;20.60;18.40;;;;;;;17.36;99.91;101677.38;5325836;28;20031;-68
2023/06/25 03:01:03;;;;;;;20.50;18.03;;;;;;;17.36;99.30;101669.47;5320873;28;20042;-68
2023/06/25 03:03:35;;;;;;;21.03;17.93;;;;;;;17.43;99.48;101667.53;5314159;28;20031;-68
2023/06/25 03:06:06;;;;;;;20.57;18.47;;;;;;;17.20;99.44;101668.16;5315356;28;20034;-68
2023/06/25 03:08:38;;;;;;;20.50;17.57;;;;;;;17.20;100.00;101666.38;5314198;28;20035;-68
2023/06/25 03:11:09;;;;;;;19.60;17.50;;;;;;;17.16;100.00;101664.72;5310446;28;20040;-68
2023/06/25 03:13:40;;;;;;;20.07;17.40;;;;;;;17.09;100.00;101663.16;5304299;28;20031;-68
2023/06/25 03:16:12;;;;;;;21.40;18.37;;;;;;;17.03;99.83;101666.78;5304210;28;20036;-69
2023/06/25 03:18:43;;;;;;;29.10;18.37;;;;;;;17.05;100.00;101670.28;5303755;28;20056;-69
2023/06/25 03:21:14;;;;;;;19.13;17.10;;;;;;;17.01;100.00;101662.50;5286294;28;20398;-69
2023/06/25 03:23:46;;;;;;;21.40;18.37;;;;;;;16.96;100.00;101665.25;5302799;28;20039;-69
2023/06/25 03:26:17;;;;;;;20.03;17.77;;;;;;;16.89;100.00;101668.94;5304410;28;20043;-69
2023/06/25 03:28:49;;;;;;;20.33;18.33;;;;;;;16.97;100.00;101666.09;5304069;28;20044;-69
2023/06/25 03:31:21;;;;;;;18.45;16.45;;;;;;;16.91;100.00;101669.75;5304051;28;20039;-69
2023/06/25 03:33:52;;;;;;;21.33;16.80;;;;;;;16.90;100.00;101666.25;5304293;28;20054;-70
2023/06/25 03:36:24;;;;;;;20.87;17.97;;;;;;;16.87;100.00;101665.47;5308493;28;20040;-69
2023/06/25 03:38:56;;;;;;;20.40;17.98;;;;;;;16.78;100.00;101663.91;5308235;28;20103;-69
2023/06/25 03:41:29;;;;;;;22.88;17.75;;;;;;;16.81;100.00;101666.47;5308280;28;20436;-69
2023/06/25 03:44:00;;;;;;;20.02;17.38;;;;;;;16.72;100.00;101658.78;5308256;28;20085;-69
2023/06/25 03:46:32;;;;;;;19.97;17.67;;;;;;;16.78;100.00;101661.28;5307916;28;20028;-69
2023/06/25 03:49:03;;;;;;;19.23;17.33;;;;;;;16.86;100.00;101659.34;5308207;28;20038;-69
2023/06/25 03:51:34;;;;;;;21.30;18.00;;;;;;;16.80;100.00;101662.09;5308178;28;20032;-69
2023/06/25 03:54:06;;;;;;;21.00;18.90;;;;;;;16.87;100.00;101653.19;5306700;28;20115;-69
2023/06/25 03:56:37;;;;;;;20.23;18.07;;;;;;;16.86;100.00;101653.22;5308245;28;20077;-69
2023/06/25 03:59:08;;;;;;;23.90;19.43;;;;;;;16.83;100.00;101658.53;5306814;28;20032;-69
2023/06/25 04:01:40;;;;;;;20.07;17.97;;;;;;;16.82;100.00;101657.63;5308006;28;20038;-69
2023/06/25 04:04:11;;;;;;;20.97;18.57;;;;;;;16.79;100.00;101655.06;5307903;28;20024;-69
2023/06/25 04:06:43;;;;;;;20.77;18.30;;;;;;;16.94;100.00;101653.88;5307766;28;20031;-69
2023/06/25 04:09:14;;;;;;;21.07;18.97;;;;;;;16.98;100.00;101647.63;5307659;28;20516;-69
2023/06/25 04:11:45;;;;;;;19.97;17.97;;;;;;;16.95;100.00;101652.97;5306565;28;20433;-69
2023/06/25 04:14:17;;;;;;;19.80;17.73;;;;;;;17.07;100.00;101649.16;5307766;28;20043;-69
2023/06/25 04:16:48;;;;;;;19.77;17.87;;;;;;;16.98;100.00;101655.53;5307536;28;20063;-69
2023/06/25 04:19:19;;;;;;;20.77;18.43;;;;;;;16.96;100.00;101657.34;5307374;28;20074;-69
2023/06/25 04:21:51;;;;;;;20.33;18.13;;;;;;;16.97;100.00;101650.28;5289264;28;20111;-69
2023/06/25 04:24:22;;;;;;;23.43;19.97;;;;;;;17.01;100.00;101657.22;5307793;28;20471;-69
2023/06/25 04:26:53;;;;;;;23.07;19.10;;;;;;;17.07;100.00;101651.81;5307494;28;20484;-70
2023/06/25 04:29:25;;;;;;;20.67;18.53;;;;;;;17.06;100.00;101647.44;5306080;28;20036;-70
2023/06/25 04:31:56;;;;;;;20.23;18.23;;;;;;;17.12;100.00;101648.13;5307425;28;20028;-69
2023/06/25 04:34:27;;;;;;;22.13;19.90;;;;;;;17.09;100.00;101642.09;5307659;28;20077;-69
2023/06/25 04:36:59;;;;;;;19.87;17.90;;;;;;;17.17;100.00;101647.16;5307182;28;20025;-69
2023/06/25 04:39:30;;;;;;;20.57;18.57;;;;;;;17.21;100.00;101654.06;5307370;28;20127;-69
2023/06/25 04:42:02;;;;;;;20.23;18.27;;;;;;;17.23;100.00;101649.63;5306981;28;20111;-70
2023/06/25 04:44:33;;;;;;;20.57;18.47;;;;;;;17.28;100.00;101648.59;5307282;28;20036;-69
2023/06/25 04:47:04;;;;;;;20.43;18.53;;;;;;;17.35;100.00;101648.41;5306057;28;20028;-69
2023/06/25 04:49:36;;;;;;;20.37;18.57;;;;;;;17.30;100.00;101653.81;5307173;28;20133;-69
2023/06/25 04:52:07;;;;;;;21.63;19.37;;;;;;;17.41;100.00;101651.75;5306940;28;20030;-70
2023/06/25 04:54:38;;;;;;;21.87;19.60;;;;;;;17.37;100.00;101651.88;5306844;28;20626;-69
2023/06/25 04:57:10;;;;;;;20.43;18.63;;;;;;;17.50;100.00;101646.22;5306825;28;20046;-70
2023/06/25 04:59:41;;;;;;;18.97;17.07;;;;;;;17.67;100.00;101645.72;5306879;28;20028;-69
2023/06/25 05:02:13;;;;;;;21.20;19.20;;;;;;;17.59;100.00;101646.88;5306726;28;20056;-69
2023/06/25 05:04:44;;;;;;;20.83;18.63;;;;;;;17.67;100.00;101644.88;5306741;28;20465;-71
2023/06/25 05:07:16;;;;;;;22.33;20.30;;;;;;;17.69;100.00;101650.97;5306610;28;20035;-69
2023/06/25 05:09:47;;;;;;;20.83;18.73;;;;;;;17.82;100.00;101644.44;5306475;28;20028;-69
2023/06/25 05:12:18;;;;;;;21.57;19.33;;;;;;;17.93;100.00;101651.19;5306702;28;20031;-69
2023/06/25 05:14:50;;;;;;;20.33;18.20;;;;;;;18.07;100.00;101651.66;5306544;28;20421;-69
2023/06/25 05:17:21;;;;;;;21.70;19.50;;;;;;;18.06;98.34;101644.63;5306021;28;20066;-70
2023/06/25 05:19:52;;;;;;;20.83;18.87;;;;;;;18.16;97.14;101653.13;5306238;28;20457;-69
2023/06/25 05:22:24;;;;;;;22.83;20.17;;;;;;;18.33;98.03;101655.25;5306400;28;20463;-69
2023/06/25 05:24:55;;;;;;;21.33;19.33;;;;;;;18.35;98.28;101650.78;5306231;28;20467;-69
2023/06/25 05:27:26;;;;;;;22.40;19.73;;;;;;;18.40;97.93;101651.50;5306336;28;20081;-69
2023/06/25 05:29:58;;;;;;;24.70;20.17;;;;;;;18.44;96.16;101647.00;5306235;28;20047;-69
2023/06/25 05:32:29;;;;;;;22.87;20.63;;;;;;;18.48;94.94;101649.50;5306155;28;20024;-69
2023/06/25 05:35:01;;;;;;;21.53;19.57;;;;;;;18.71;94.69;101648.75;5306410;28;20078;-69
2023/06/25 05:37:32;;;;;;;23.40;21.00;;;;;;;18.71;93.42;101645.25;5306140;28;20054;-69
2023/06/25 05:40:04;;;;;;;22.37;20.07;;;;;;;18.78;93.85;101652.03;5306025;28;20462;-70
2023/06/25 05:42:35;;;;;;;22.13;20.02;;;;;;;18.96;91.91;101650.59;5305907;28;20032;-69
2023/06/25 05:45:08;;;;;;;20.67;18.70;;;;;;;18.95;90.67;101657.66;5306127;28;20036;-69
2023/06/25 05:47:39;;;;;;;21.65;19.42;;;;;;;19.06;90.32;101640.56;5305605;28;20355;-69
2023/06/25 05:50:11;;;;;;;20.20;18.23;;;;;;;19.21;89.87;101640.03;5305813;28;20036;-69
2023/06/25 05:52:43;;;;;;;21.03;19.07;;;;;;;19.28;89.43;101641.53;5305797;28;20040;-71
2023/06/25 05:55:14;;;;;;;;;;;;;;;19.41;89.99;101641.94;5304740;28;20028;-69
2023/06/25 05:57:46;;;;;;;19.20;17.33;;;;;;;19.49;88.00;101631.09;5304633;28;19912;-69
2023/06/25 06:00:21;;;;;;;17.73;15.93;;;;;;;19.64;85.98;101641.13;5305608;28;20032;-69
2023/06/25 06:02:52;;;;;;;18.85;17.05;;;;;;;19.71;86.39;101640.91;5305439;28;20483;-70
2023/06/25 06:05:23;;;;;;;17.40;15.77;;;;;;;19.78;86.24;101640.63;5305478;28;20039;-70
2023/06/25 06:07:55;;;;;;;17.83;16.03;;;;;;;19.93;84.92;101640.97;5305359;28;20064;-69
2023/06/25 06:10:26;;;;;;;17.17;15.37;;;;;;;19.96;84.12;101640.84;5303885;28;20028;-69
2023/06/25 06:12:57;;;;;;;19.07;15.67;;;;;;;20.11;83.25;101642.91;5305374;28;20032;-69
2023/06/25 06:15:29;;;;;;;16.00;14.07;;;;;;;20.22;80.20;101638.06;5304889;28;20032;-69
2023/06/25 06:18:00;;;;;;;14.57;13.03;;;;;;;20.30;80.26;101643.06;5303704;28;20028;-69
2023/06/25 06:20:32;;;;;;;16.90;13.70;;;;;;;20.40;80.16;101654.13;5305223;28;20024;-69
2023/06/25 06:23:03;;;;;;;14.10;12.67;;;;;;;20.44;79.92;101653.06;5305182;28;20386;-70
2023/06/25 06:25:34;;;;;;;15.57;13.80;;;;;;;20.69;76.63;101650.31;5305072;28;20036;-69
2023/06/25 06:28:06;;;;;;;14.63;13.00;;;;;;;20.73;76.67;101648.41;5304959;28;20032;-70
2023/06/25 06:30:37;;;;;;;16.17;12.63;;;;;;;20.86;76.39;101654.03;5304937;28;20066;-69
2023/06/25 06:33:08;;;;;;;12.70;11.40;;;;;;;20.94;74.10;101647.47;5305050;28;20032;-69
2023/06/25 06:35:40;;;;;;;13.20;11.80;;;;;;;21.09;70.54;101646.00;5305249;28;20035;-69
2023/06/25 06:38:11;;;;;;;11.20;9.97;;;;;;;21.22;70.22;101648.06;5304808;28;20124;-69
2023/06/25 06:40:43;;;;;;;12.20;10.90;;;;;;;21.34;69.80;101647.56;5304769;28;20107;-69
2023/06/25 06:43:14;;;;;;;12.70;10.83;;;;;;;21.48;67.76;101644.31;5304635;28;20035;-69
2023/06/25 06:45:45;;;;;;;13.13;10.47;;;;;;;21.64;66.66;101641.84;5304453;28;20028;-69
2023/06/25 06:48:17;;;;;;;12.63;9.50;;;;;;;21.73;65.17;101632.59;5304632;28;20032;-70
2023/06/25 06:50:48;;;;;;;10.17;9.17;;;;;;;21.87;65.75;101630.16;5304672;28;20038;-69
2023/06/25 06:53:19;;;;;;;10.30;8.30;;;;;;;22.03;63.29;101639.09;5304662;28;20585;-69
2023/06/25 06:55:52;;;;;;;15.13;9.13;;;;;;;22.15;63.69;101639.47;5304563;28;20046;-69
2023/06/25 06:58:23;;;;;;;13.98;9.25;;;;;;;22.28;62.74;101639.72;5304659;28;20020;-68
2023/06/25 07:00:54;;;;;;;14.07;8.60;;;;;;;22.32;62.40;101636.03;5304619;28;20070;-69
2023/06/25 07:03:25;;;;;;;9.13;7.10;;;;;;;22.50;56.77;101635.09;5304399;28;20024;-69
2023/06/25 07:05:57;;;;;;;11.10;7.90;;;;;;;22.71;56.99;101634.97;5304280;28;20395;-69
2023/06/25 07:08:28;;;;;;;8.63;6.03;;;;;;;22.81;55.58;101633.56;5304333;28;20032;-69
2023/06/25 07:10:59;;;;;;;8.83;6.10;;;;;;;22.98;54.46;101630.06;5304153;28;20055;-69
2023/06/25 07:13:32;;;;;;;8.63;6.27;;;;;;;23.06;55.44;101627.84;5304293;28;20040;-69
2023/06/25 07:16:03;;;;;;;6.70;5.93;;;;;;;23.20;54.02;101629.84;5303708;28;20063;-70
2023/06/25 07:18:35;;;;;;;7.30;5.15;;;;;;;23.30;51.89;101635.53;5303810;28;20445;-69
2023/06/25 07:21:08;;;;;;;9.00;6.20;;;;;;;23.29;51.54;101636.47;5304033;28;20052;-69
2023/06/25 07:23:40;;;;;;;8.48;5.38;;;;;;;23.50;50.62;101637.13;5304247;28;20040;-70
2023/06/25 07:26:11;;;;;;;9.57;5.57;;;;;;;23.57;51.42;101638.53;5301178;28;20028;-69
2023/06/25 07:28:43;;;;;;;7.67;5.20;;;;;;;23.61;50.80;101634.72;5306231;28;20032;-70
2023/06/25 07:31:14;;;;;;;6.80;5.37;;;;;;;23.72;51.53;101636.81;5302667;28;20074;-69
2023/06/25 07:33:45;;;;;;;9.37;6.50;;;;;;;23.82;51.14;101634.50;5313486;28;20039;-72
2023/06/25 07:36:17;;;;;;;7.90;5.57;;;;;;;23.90;49.86;101632.31;5324083;28;20515;-69
2023/06/25 07:38:48;;;;;;;8.80;6.45;;;;;;;23.99;51.13;101629.13;5324826;28;20059;-69
2023/06/25 07:41:20;;;;;;;6.97;5.53;;;;;;;24.06;49.93;101624.31;5324152;28;20062;-70
2023/06/25 07:43:51;;;;;;;7.63;5.33;;;;;;;24.24;50.34;101626.88;5324362;28;20028;-69
2023/06/25 07:46:23;;;;;;;8.40;5.43;;;;;;;24.42;49.76;101628.47;5309929;28;20084;-69
2023/06/25 07:48:55;;;;;;;9.75;6.20;;;;;;;24.40;50.44;101631.22;5303543;28;20059;-70
2023/06/25 07:51:27;;;;;;;8.18;5.90;;;;;;;24.44;51.28;101631.94;5302734;28;20043;-70
2023/06/25 07:53:58;;;;;;;7.47;5.90;;;;;;;24.63;50.71;101622.88;5303067;28;20032;-70
2023/06/25 07:56:29;;;;;;;7.23;5.07;;;;;;;24.71;51.16;101621.50;5302621;28;20035;-70
2023/06/25 07:59:01;;;;;;;10.05;6.03;;;;;;;24.80;50.54;101611.22;5301896;28;20039;-71
2023/06/25 08:01:32;;;;;;;8.37;5.57;;;;;;;24.92;49.50;101614.03;5303417;28;20032;-69
2023/06/25 08:04:04;;;;;;;8.73;6.43;;;;;;;24.93;49.16;101614.88;5303645;28;20269;-70
2023/06/25 08:06:35;;;;;;;6.83;5.60;;;;;;;24.98;52.18;101607.44;5302840;28;20506;-70
2023/06/25 08:09:07;;;;;;;7.50;6.05;;;;;;;25.07;49.99;101612.22;5303754;28;20364;-69
2023/06/25 08:11:39;;;;;;;7.05;5.72;;;;;;;25.19;49.51;101615.09;5303211;28;20028;-70
2023/06/25 08:14:10;;;;;;;7.00;6.13;;;;;;;25.19;47.90;101615.09;5303662;28;20123;-70
2023/06/25 08:16:42;;;;;;;9.23;5.68;;;;;;;25.45;49.21;101610.84;5302420;28;20266;-69
2023/06/25 08:19:13;;;;;;;7.05;5.53;;;;;;;25.41;48.34;101610.19;5303276;28;20060;-69
2023/06/25 08:21:45;;;;;;;6.97;5.20;;;;;;;25.45;47.95;101616.16;5304496;28;20040;-69
2023/06/25 08:24:17;;;;;;;6.60;4.95;;;;;;;25.59;48.12;101605.47;5310848;28;20035;-69
2023/06/25 08:26:48;;;;;;;8.05;5.15;;;;;;;25.72;48.13;101618.91;5316216;27;20032;-69
2023/06/25 08:29:21;;;;;;;8.60;5.93;;;;;;;25.66;48.45;101605.94;5312907;28;20164;-70
2023/06/25 08:31:52;;;;;;;6.57;5.40;;;;;;;25.85;48.37;101603.81;5307320;28;20031;-71
2023/06/25 08:34:24;;;;;;;6.60;5.85;;;;;;;25.98;47.86;101606.56;5306156;28;20483;-71
2023/06/25 08:36:55;;;;;;;7.50;5.70;;;;;;;25.95;48.80;101603.22;5326290;28;20036;-70
2023/06/25 08:39:26;;;;;;;5.97;5.00;;;;;;;26.18;49.45;101599.09;5327940;28;20028;-70
2023/06/25 08:41:59;;;;;;;5.97;4.60;;;;;;;26.26;48.03;101603.91;5327840;28;20283;-70
2023/06/25 08:44:30;;;;;;;6.05;4.90;;;;;;;26.48;46.90;101600.66;5327993;28;20023;-70
2023/06/25 08:47:06;;;;;;;6.57;5.10;;;;;;;26.38;47.08;101595.94;5327288;28;20031;-68
2023/06/25 08:49:42;;;;;;;7.47;5.40;;;;;;;26.55;46.58;101597.47;5328363;28;20382;-70
2023/06/25 08:52:13;;;;;;;6.63;5.00;;;;;;;26.70;46.07;101590.25;5328115;28;20463;-68
2023/06/25 08:54:45;;;;;;;5.80;5.20;;;;;;;26.59;44.60;101591.94;5328432;28;20162;-69
2023/06/25 08:57:17;;;;;;;7.47;5.20;;;;;;;26.70;44.66;101589.41;5326756;28;20031;-68
2023/06/25 08:59:49;;;;;;;7.57;4.90;;;;;;;26.99;45.30;101586.56;5328100;27;20027;-69
2023/06/25 09:02:20;;;;;;;6.22;5.07;;;;;;;27.02;44.49;101584.50;5327840;28;20046;-69
2023/06/25 09:04:52;;;;;;;6.15;4.68;;;;;;;27.04;44.28;101584.41;5327794;28;20032;-70
2023/06/25 09:07:23;;;;;;;6.05;5.00;;;;;;;27.15;44.95;101587.19;5328161;28;20035;-69
2023/06/25 09:09:54;;;;;;;4.97;4.47;;;;;;;27.40;44.00;101593.50;5327978;28;20046;-70
2023/06/25 09:12:26;;;;;;;5.60;4.47;;;;;;;27.61;45.63;101589.28;5327838;28;20345;-70
2023/06/25 09:14:58;;;;;;;6.15;4.80;;;;;;;27.68;43.25;101580.78;5327741;28;20266;-69
2023/06/25 09:17:30;;;;;;;6.90;4.88;;;;;;;27.44;41.86;101578.94;5327183;28;20035;-72
2023/06/25 09:20:05;;;;;;;;;;;;;;;27.73;43.21;101581.31;5326704;28;20055;-70
2023/06/25 09:22:52;;;;;;;5.38;4.10;;;;;;;27.80;43.92;101577.22;5327844;28;19915;-70
2023/06/25 09:25:30;;;;;;;7.60;5.03;;;;;;;27.90;42.12;101569.34;5327637;28;20463;-69
2023/06/25 09:28:03;;;;;;;9.05;4.63;;;;;;;27.78;41.79;101576.47;5327508;28;20039;-70
2023/06/25 09:30:35;;;;;;;5.43;4.45;;;;;;;27.92;41.00;101564.72;5327769;28;20036;-68
2023/06/25 09:33:08;;;;;;;7.63;5.63;;;;;;;27.93;40.98;101566.44;5327391;28;20497;-69
2023/06/25 09:35:39;;;;;;;5.82;4.70;;;;;;;27.99;40.71;101574.06;5327305;28;20032;-69
2023/06/25 09:38:11;;;;;;;;;;;;;;;28.23;40.80;101568.69;5326448;28;20504;-69
2023/06/25 09:40:42;;;;;;;6.70;4.40;;;;;;;28.16;40.10;101571.00;5327332;28;19955;-70
2023/06/25 09:43:14;;;;;;;7.40;4.70;;;;;;;28.29;39.23;101573.59;5327497;28;20119;-69
2023/06/25 09:45:46;;;;;;;;;;;;;;;28.54;39.39;101566.34;5327182;28;20032;-69
2023/06/25 09:48:25;;;;;;;7.00;5.07;;;;;;;28.49;37.92;101563.19;5327161;28;19911;-68
2023/06/25 09:51:00;;;;;;;7.28;5.45;;;;;;;28.48;38.52;101561.47;5327052;28;20389;-70
2023/06/25 09:53:35;;;;;;;6.70;4.43;;;;;;;28.55;39.39;101562.72;5327102;28;20027;-69
2023/06/25 09:56:08;;;;;;;4.63;4.10;;;;;;;28.61;38.01;101561.41;5326781;28;20035;-70
2023/06/25 09:58:40;;;;;;;5.00;3.95;;;;;;;28.84;38.35;101551.59;5326685;28;20035;-69
2023/06/25 10:01:11;;;;;;;;;;;;;;;29.07;39.22;101558.66;5327088;28;20031;-68
2023/06/25 10:03:43;;;;;;;4.93;4.00;;;;;;;29.08;37.49;101557.69;5327040;28;20040;-70
2023/06/25 10:06:14;;;;;;;;;;;;;;;29.21;37.73;101554.91;5327225;28;20032;-70
2023/06/25 10:08:46;;;;;;;6.63;4.60;;;;;;;29.23;35.86;101544.06;5326822;28;19912;-70
2023/06/25 10:11:17;;;;;;;;;;;;;;;29.90;36.63;101551.16;5327032;28;20064;-70
2023/06/25 10:13:51;;;;;;;5.30;4.03;;;;;;;30.87;32.87;101540.25;5323628;28;19913;-69
2023/06/25 10:16:23;;;;;;;5.35;4.53;;;;;;;32.03;32.03;101548.00;5326000;28;20017;-70
2023/06/25 10:18:56;;;;;;;7.10;4.00;;;;;;;32.92;29.69;101536.94;5325433;28;20054;-69
2023/06/25 10:21:27;;;;;;;5.53;4.32;;;;;;;33.86;29.70;101548.56;5324971;28;20031;-70
2023/06/25 10:24:01;;;;;;;8.20;4.63;;;;;;;34.21;27.87;101542.28;5324118;28;20028;-71
2023/06/25 10:26:36;;;;;;;7.93;4.55;;;;;;;34.17;28.63;101539.03;5325551;28;20382;-70
2023/06/25 10:29:07;;;;;;;5.40;4.18;;;;;;;35.06;26.89;101525.44;5325713;28;20482;-68
2023/06/25 10:31:41;;;;;;;6.13;4.25;;;;;;;35.39;25.45;101534.56;5326247;28;20034;-70
2023/06/25 10:34:16;;;;;;;5.43;4.32;;;;;;;35.58;26.02;101528.00;5325127;28;20115;-69
2023/06/25 10:36:50;;;;;;;6.65;4.65;;;;;;;35.90;24.21;101528.22;5309892;28;20036;-71
2023/06/25 10:39:22;;;;;;;6.40;4.57;;;;;;;35.19;24.33;101525.81;5324045;28;20372;-70
2023/06/25 10:41:53;;;;;;;7.65;4.80;;;;;;;35.86;25.06;101521.47;5324958;28;20042;-70
2023/06/25 10:44:28;;;;;;;5.75;4.60;;;;;;;36.98;24.47;101521.66;5323993;27;20063;-70
2023/06/25 10:47:08;;;;;;;5.28;4.78;;;;;;;37.14;24.60;101518.84;5325226;28;20035;-70
2023/06/25 10:49:39;;;;;;;5.22;4.72;;;;;;;37.81;23.31;101522.09;5324473;28;20047;-70
2023/06/25 10:52:11;;;;;;;5.05;4.25;;;;;;;37.81;22.66;101513.91;5325676;28;20372;-70
2023/06/25 10:54:42;;;;;;;5.50;4.93;;;;;;;38.02;22.81;101505.06;5310361;28;20111;-70
2023/06/25 10:57:15;;;;;;;5.30;4.70;;;;;;;37.86;22.30;101512.34;5303585;28;20024;-71
2023/06/25 10:59:48;;;;;;;6.38;4.70;;;;;;;38.24;21.59;101503.34;5303318;28;20032;-70
2023/06/25 11:02:21;;;;;;;6.20;4.53;;;;;;;38.44;21.03;101504.50;5303952;28;20028;-71
2023/06/25 11:04:58;;;;;;;6.05;4.63;;;;;;;38.59;20.80;101501.78;5303949;28;20036;-71
2023/06/25 11:07:30;;;;;;;5.57;4.75;;;;;;;37.74;21.24;101492.88;5303119;28;20043;-71
2023/06/25 11:10:01;;;;;;;5.40;4.90;;;;;;;37.37;21.07;101493.59;5304290;28;20036;-69
2023/06/25 11:12:33;;;;;;;5.20;4.70;;;;;;;37.71;21.82;101486.97;5303735;28;20505;-69
2023/06/25 11:15:04;;;;;;;6.47;4.57;;;;;;;38.01;21.75;101487.88;5304336;28;20035;-69
2023/06/25 11:17:36;;;;;;;5.68;5.00;;;;;;;37.94;21.48;101489.66;5303349;28;20024;-70
2023/06/25 11:20:08;;;;;;;5.53;4.63;;;;;;;37.12;21.75;101482.84;5303992;28;20063;-69
2023/06/25 11:22:42;;;;;;;5.20;4.60;;;;;;;37.12;22.32;101480.13;5303292;28;20115;-69
2023/06/25 11:25:15;;;;;;;5.50;4.85;;;;;;;37.93;22.28;101477.06;5304211;28;20032;-69
2023/06/25 11:27:48;;;;;;;5.63;4.97;;;;;;;38.55;21.03;101475.97;5303321;28;20532;-70
2023/06/25 11:30:19;;;;;;;6.32;5.00;;;;;;;38.20;22.12;101472.94;5312325;28;20559;-70
2023/06/25 11:32:51;;;;;;;7.68;5.60;;;;;;;38.71;20.88;101460.47;5314152;28;20049;-70
2023/06/25 11:35:24;;;;;;;5.72;4.82;;;;;;;37.81;21.18;101470.38;5314012;28;20059;-69
2023/06/25 11:37:56;;;;;;;6.32;4.53;;;;;;;38.67;20.27;101460.88;5312869;28;20039;-70